Jean Philippe Monclin

Jean Philippe Monclin

Statistiques 2026

  • Courses courues : 73
  • Nb de victoires : 16
  • Nb de places : 33
  • Écart gagnant : 2
  • Réussite à la gagne : 22%
  • Réussite à la place : 45%
Musique : 0a 4a 1a 6a Da 3a Da 3a 1a 1a 3a 5a 2a 2a 0a Da 0a 2a
DateRangCatégorieAlloc.Dist.HippodromeChevalRed. KmSpé.
12/02/22 4 Trot 13 000€ 2 150m Argentan Just Chance 1'17"4 Attelé
28/03/22 D Trot 20 000€ 2 150m Argentan Isola Quick Attelé
28/03/22 2 Trot 20 000€ 2 150m Argentan Ideal Dancer 1'13"5 Attelé
28/03/22 9 Trot 23 000€ 2 875m Argentan Hazana Thonic 1'18"1 Attelé
14/06/22 2 Trot 23 000€ 2 800m Argentan Herbal de Vandel 1'16"5 Attelé
14/06/22 2 Trot 27 000€ 2 875m Argentan Gaston des Sables Attelé
14/06/22 D Trot 20 000€ 2 800m Argentan Just A Midi Attelé
06/01/24 1 Trot 12 500€ 2 300m Argentan Lutin des Bordes 1'17"6 Attelé
06/01/24 1 Trot 12 500€ 2 300m Argentan Laure des Forges 1'17"7 Attelé
06/01/24 2 Trot 15 000€ 2 900m Argentan Just Pretty One 1'16"3 Attelé
29/04/17 7 Trot 24 000€ 2 150m Argentan Cherif Griff 1'14"5 Attelé
29/04/17 3 Trot 100 000€ 1 609m Argentan Bird Parker 1'09"7 Attelé
29/04/17 2 Trot 22 000€ 2 900m Argentan Cepage des Ulmes 1'16"7 Attelé
29/04/17 4 Trot 22 000€ 2 800m Argentan Day To Day 1'16"0 Attelé
03/06/17 2 Trot 27 000€ 2 875m Argentan Ben de Torvic 1'16"7 Attelé
03/06/17 8 Trot 20 000€ 2 800m Argentan Cold Speed 1'17"5 Attelé
03/06/17 0 Trot 18 000€ 2 875m Argentan Drago Star Attelé
03/06/17 4 Trot 20 000€ 2 150m Argentan Extra Light 1'15"2 Attelé
19/06/16 D Trot 12 000€ 2 400m Arras Dalila la Mesange Attelé
19/06/16 D Trot 12 000€ 2 900m Arras California Jihaime Attelé
19/06/16 5 Trot 45 000€ 2 875m Arras Vasco de Graux Attelé
12/09/10 1 Trot 13 000€ 2 250m Auch Spout Jim 1'17"1 Attelé
12/09/10 D Trot 11 000€ 2 250m Auch Titus Jepfy Monté
12/09/10 7 Trot 20 000€ 2 800m Auch Quitou Jim 1'17"0 Attelé
13/09/10 D Trot 16 000€ 2 825m Auch Sire de la Noemie Attelé
11/11/23 1 Trot 13 500€ 2 250m Auch Linguist d'heripre Attelé
11/11/23 0 Trot 15 000€ 2 250m Auch Inoui de Bry Attelé
11/11/23 4 Trot 15 000€ 2 250m Auch Incudine 1'16"4 Attelé
11/11/23 1 Trot 13 000€ 2 250m Auch Krach Nonantais 1'17"8 Attelé
11/11/23 7 Trot 13 000€ 2 250m Auch Kalimero 1'19"1 Attelé
11/11/23 1 Trot 28 000€ 2 825m Auch Fantasia de Ligny 1'16"3 Attelé
06/08/13 3 Trot 13 000€ 2 725m Avranches Unika Reverie Attelé
02/08/11 9 Trot 14 000€ 2 725m Avranches Quitou Jim Attelé
23/03/08 3 Trot 15 000€ 2 575m Beaumont De Lomagne Opale des Salines 1'19"5 Monté
23/03/08 D Trot 12 000€ 2 375m Beaumont De Lomagne Quick de Moutiers Attelé
23/03/08 6 Trot 14 000€ 2 375m Beaumont De Lomagne Obellia William 1'17"6 Attelé
24/03/08 3 Trot 12 000€ 2 550m Beaumont De Lomagne Qlinmon 1'20"9 Monté
24/03/08 0 Trot 13 000€ 2 550m Beaumont De Lomagne Narvik du Puits Attelé
24/03/08 7 Trot 18 000€ 2 375m Beaumont De Lomagne One Love Danover 1'17"7 Attelé
31/08/08 3 Trot 35 000€ 2 575m Beaumont De Lomagne Ma Sissi James 1'15"9 Attelé lire

Longtemps dernière, a fait le tour du peloton en face avant de plafonner pour finir.

21/06/09 D Trot 23 000€ 2 575m Beaumont De Lomagne Maitre de la Piste Monté lire

A vite pris le galop.

16/10/11 5 Trot 20 000€ 2 575m Beaumont De Lomagne Quitou Jim 1'17"1 Attelé lire

Rapproché progressivement en étant à l'abri, a fait illusion pour la victoire à mi ligne droite mais n'a pu contrer les attaques pour finir.

16/05/19 1 Trot 20 000€ 2 400m Beaumont De Lomagne Give Me Five 1'17"6 Attelé
16/05/19 4 Trot 24 000€ 2 550m Beaumont De Lomagne Falco Brador 1'16"2 Attelé
16/05/19 2 Trot 26 000€ 2 550m Beaumont De Lomagne Extra Jet 1'15"3 Attelé
16/05/19 D Trot 32 000€ 2 575m Beaumont De Lomagne Delloro Vedaquais Attelé
16/05/19 0 Trot 22 000€ 2 950m Beaumont De Lomagne Cirrus de Banville Attelé
16/10/11 D Trot 22 000€ 2 575m Beaumont De Lomagne Remember Jihem Monté
20/05/17 2 Trot 21 000€ 2 575m Beaumont De Lomagne Dryade de Nganda 1'14"8 Attelé lire

Après avoir figuré, a rejoint les animateurs a bout de la ligne opposée, puis a bien conclu.

20/05/17 3 Trot 23 000€ 2 600m Beaumont De Lomagne Chilkoot Trail 1'14"4 Attelé lire

Après avoir attendu au sein du peloton, a progressé à la sortie du tournant final soutenant bien son effort jusqu'au bout.